Honolulu, HI

8:58 AM HST on August 29, 2014 (GMT -1000)
Kalaeloa (John Rodgers Field) | Change Station
CLOSE
Current Station
Airport
Location: Kalaeloa,
Elevation: 49 ft
Nearby Weather Stations
Active Advisory: High Surf Advisory

Elev 49 ft 21.31 °N, 158.07 °W | Updated 5 minutes ago

Clear
Clear
83 °F
Feels Like 85 °F
N
5
Wind Variable Wind from NNE

Today
High -- | Low -- °F
--% Chance of Precip.
Yesterday
High -- | Low -- °F
Precip. -- in
6:14 AM 6:49 PM
Waxing Crescent, 16% visible
Pressure 29.96 in
Visibility 10.0 miles
Clouds Clear
Heat Index 85 °F
Dew Point 67 °F
Humidity 58%
Rainfall 0.00 in
Snow Depth Not available.
UV 4 out of 12
Pollen Not available.
PM2.5 Good
Flu Activity Not available.
METAR PHJR 291853Z 02004KT 10SM CLR 28/19 A2993 RMK AO2 SLP143 T02830194

More Conditions Fewer Conditions

Pressure 29.96 in
Visibility 10.0 miles
Clouds Clear
Heat Index 85 °F
Dew Point 67 °F
Humidity 58%
Rainfall 0.00 in
Snow Depth Not available.
UV 4 out of 12
Pollen Not available.
PM2.5 Good
Flu Activity Not available.
METAR PHJR 291853Z 02004KT 10SM CLR 28/19 A2993 RMK AO2 SLP143 T02830194

More Conditions Fewer Conditions

10-Day Weather Forecast

Almanac

Astronomy

Aug. 29, 2014 Rise Set
Actual Time 6:14 AM HST 6:49 PM HST
Civil Twilight 5:51 AM HST 7:12 PM HST
Nautical Twilight 5:24 AM HST 7:38 PM HST
Astronomical Twilight 4:58 AM HST 8:05 PM HST
Moon 9:40 AM HST 9:31 PM HST
Length of Visible Light 13h 21m
Length of Day
12h 35m
Tomorrow will be 1m 9s shorter.
Waxing Crescent, 16% of the Moon is Illuminated
Today
Waxing Crescent
Sep 2
First Quarter
Sep 8
Full
Sep 15
Last Quarter
Sep 24
New

Today's Extremes

State Highs State Lows

Community

WunderPhotos

Upload Photos

1,748,314 photos uploaded!

Nearby

Air Quality

  Air Quality AQ Index Pollutant
Yesterday Good
PM10
Current Good
PM2.5
Friday Good
OZONE

Snow Depth

Station Depth Elevation
No new snow has been reported.

Earthquake Activity

City Distance Mag. Time & Date
No recent earthquake activity has been reported nearby.
Minimum magnitude displayed is 2.5.

Coastal Water Temperatures

Place Temperature
No Stations Reporting

Nearby Weather Stations